Time;durP1;ratioP1;P1;durP2;ratioP2;P2;SDS_P1;SDS_P2;PMS_P1;PMS_P2;Temp;Humidity;BMP_temperature;BMP_pressure;BME280_temperature;BME280_humidity;BME280_pressure;Samples;Min_cycle;Max_cycle;Signal;HPM_P1;HPM_P2
2021/12/01 00:00:50;;;;;;;3.60;2.30;;;;;;;4.54;77.63;96670.27;1616647;87;21027;-65
2021/12/01 00:03:16;;;;;;;3.10;2.47;;;;;;;4.60;77.64;96677.87;1618745;88;20984;-65
2021/12/01 00:05:44;;;;;;;2.52;2.33;;;;;;;4.62;77.39;96674.03;1618813;87;21041;-65
2021/12/01 00:08:11;;;;;;;2.55;2.35;;;;;;;4.55;77.45;96673.22;1618553;87;21549;-63
2021/12/01 00:10:38;;;;;;;2.27;1.95;;;;;;;4.56;77.54;96676.67;1617192;88;21200;-63
2021/12/01 00:13:08;;;;;;;2.77;2.25;;;;;;;4.57;77.37;96673.00;1617735;87;21114;-64
2021/12/01 00:15:39;;;;;;;2.65;2.42;;;;;;;4.62;77.32;96667.95;1620140;86;20981;-62
2021/12/01 00:18:06;;;;;;;3.10;2.50;;;;;;;4.55;99.84;96671.09;1618406;87;21064;-65
2021/12/01 00:20:32;;;;;;;2.92;2.62;;;;;;;4.57;100.00;96672.50;1620140;87;20994;-65
2021/12/01 00:22:59;;;;;;;2.20;2.00;;;;;;;4.60;100.00;96677.37;1593423;89;21179;-64
2021/12/01 00:25:29;;;;;;;1.62;1.52;;;;;;;4.65;100.00;96673.63;1602875;89;21137;-65
2021/12/01 00:27:56;;;;;;;2.00;1.90;;;;;;;4.66;100.00;96678.41;1604119;87;21026;-64
2021/12/01 00:30:22;;;;;;;2.47;1.95;;;;;;;4.68;100.00;96674.55;1652927;86;21475;-64
2021/12/01 00:32:49;;;;;;;2.40;2.20;;;;;;;4.66;100.00;96684.48;1627719;86;21546;-64
2021/12/01 00:35:16;;;;;;;2.20;1.95;;;;;;;4.61;100.00;96690.86;1641134;85;21174;-64
2021/12/01 00:37:43;;;;;;;2.10;1.90;;;;;;;4.62;100.00;96699.05;1662149;86;21005;-65
2021/12/01 00:40:11;;;;;;;3.17;2.50;;;;;;;4.59;93.20;96695.48;1632226;86;21028;-64
2021/12/01 00:42:39;;;;;;;2.42;2.22;;;;;;;4.61;89.75;96692.17;1663048;85;21564;-64
2021/12/01 00:45:11;;;;;;;2.33;2.12;;;;;;;4.54;90.04;96701.86;1660645;85;21114;-65
2021/12/01 00:47:49;;;;;;;3.60;2.30;;;;;;;4.49;92.13;96699.02;1657989;86;21159;-63
2021/12/01 00:50:12;;;;;;;2.92;2.00;;;;;;;4.45;90.96;96699.13;1657119;85;20956;-63
2021/12/01 00:52:40;;;;;;;2.25;2.02;;;;;;;4.39;89.64;96703.86;1661518;86;21542;-63
2021/12/01 00:55:08;;;;;;;1.30;1.20;;;;;;;4.38;89.83;96707.48;1662876;85;21763;-63
2021/12/01 00:57:35;;;;;;;1.35;1.25;;;;;;;4.31;89.06;96712.74;1663439;85;20956;-63
2021/12/01 01:00:05;;;;;;;1.90;1.70;;;;;;;4.26;89.03;96710.39;1658346;86;21173;-64
2021/12/01 01:02:31;;;;;;;3.35;2.35;;;;;;;4.21;88.96;96715.44;1661849;85;20964;-63
2021/12/01 01:04:58;;;;;;;1.87;1.67;;;;;;;4.17;89.04;96721.59;1660047;85;20994;-64
2021/12/01 01:07:24;;;;;;;1.92;1.45;;;;;;;4.19;89.52;96721.41;1660684;85;21483;-64
2021/12/01 01:09:51;;;;;;;7.80;2.77;;;;;;;4.16;90.93;96719.16;1661584;85;21137;-64
2021/12/01 01:18:08;;;;;;;1.80;1.70;;;;;;;4.25;90.77;96718.78;1661014;85;21078;-63
2021/12/01 01:20:36;;;;;;;2.17;1.98;;;;;;;4.30;90.62;96715.59;1664294;85;20925;-63
2021/12/01 01:23:03;;;;;;;2.12;1.70;;;;;;;4.21;93.70;96716.75;1660097;86;20976;-64
2021/12/01 01:25:30;;;;;;;2.40;1.80;;;;;;;4.22;94.97;96718.39;1655194;85;21254;-64
2021/12/01 01:27:56;;;;;;;2.00;1.70;;;;;;;4.20;93.18;96717.75;1660306;85;21677;-64
2021/12/01 01:30:23;;;;;;;2.42;1.90;;;;;;;4.12;92.24;96720.05;1651182;85;21099;-63
2021/12/01 01:32:51;;;;;;;2.67;2.20;;;;;;;4.12;92.04;96725.84;1661609;85;21030;-63
2021/12/01 01:35:18;;;;;;;5.33;2.00;;;;;;;4.13;92.17;96719.55;1575955;88;21028;-63
2021/12/01 01:37:46;;;;;;;2.50;1.95;;;;;;;4.13;92.21;96727.45;1590720;89;21185;-65
2021/12/01 01:40:13;;;;;;;2.90;2.08;;;;;;;4.11;92.08;96732.09;1588665;89;21090;-63
2021/12/01 01:42:40;;;;;;;3.02;2.72;;;;;;;3.98;94.68;96735.48;1604027;89;21090;-63
2021/12/01 01:45:08;;;;;;;2.75;2.40;;;;;;;4.04;97.20;96743.89;1619310;88;20933;-63
2021/12/01 01:47:35;;;;;;;3.05;2.25;;;;;;;4.13;97.68;96745.36;1619014;88;21150;-63
2021/12/01 01:52:34;;;;;;;3.10;2.22;;;;;;;4.16;98.28;96747.61;1593747;89;20986;-63
2021/12/01 01:55:02;;;;;;;4.55;2.65;;;;;;;4.22;97.84;96745.48;1620647;87;21016;-62
2021/12/01 01:57:30;;;;;;;3.15;2.72;;;;;;;4.25;96.46;96741.16;1591943;89;21002;-63
2021/12/01 01:59:56;;;;;;;3.47;2.35;;;;;;;4.24;95.35;96739.55;1593600;89;21469;-63
2021/12/01 02:02:23;;;;;;;3.15;2.55;;;;;;;4.22;94.66;96742.07;1621957;87;21214;-63
2021/12/01 02:04:50;;;;;;;3.00;2.62;;;;;;;4.13;95.25;96737.47;1631272;87;21023;-63
2021/12/01 02:07:16;;;;;;;3.45;2.87;;;;;;;4.13;95.33;96748.00;1619979;87;20888;-64
2021/12/01 02:09:43;;;;;;;4.30;3.10;;;;;;;4.11;95.47;96753.97;1592387;89;21504;-63
2021/12/01 02:12:10;;;;;;;5.30;3.85;;;;;;;4.15;95.48;96763.58;1618612;87;21042;-63
2021/12/01 02:14:36;;;;;;;3.77;3.25;;;;;;;4.20;95.42;96762.48;1619201;88;21188;-64
2021/12/01 02:17:04;;;;;;;4.00;3.45;;;;;;;4.19;95.20;96766.14;1618792;87;21616;-63
2021/12/01 02:19:31;;;;;;;3.72;3.12;;;;;;;4.14;95.09;96768.55;1619231;87;21552;-63
2021/12/01 02:21:57;;;;;;;3.22;2.50;;;;;;;4.08;95.78;96770.14;1619312;87;21095;-63
2021/12/01 02:24:24;;;;;;;3.10;2.75;;;;;;;4.08;96.25;96770.14;1626086;87;21038;-64
2021/12/01 02:26:51;;;;;;;3.25;2.33;;;;;;;4.09;95.92;96774.91;1595793;89;21483;-63
2021/12/01 02:29:24;;;;;;;3.33;3.00;;;;;;;4.12;95.69;96775.83;1616664;87;21047;-63
2021/12/01 02:31:53;;;;;;;3.70;2.90;;;;;;;4.19;95.40;96783.25;1610439;88;20983;-63
2021/12/01 02:34:23;;;;;;;3.52;3.10;;;;;;;4.25;95.02;96781.12;1631267;86;21025;-63
2021/12/01 02:36:53;;;;;;;3.08;2.80;;;;;;;4.30;94.65;96794.55;1628449;86;21565;-63
2021/12/01 02:39:20;;;;;;;3.45;2.80;;;;;;;4.27;94.15;96798.88;1604936;88;21847;-64
2021/12/01 02:41:53;;;;;;;3.65;2.95;;;;;;;4.23;94.13;96800.26;1660125;85;20947;-64
2021/12/01 02:44:20;;;;;;;3.27;2.98;;;;;;;4.27;94.10;96801.51;1663288;85;21064;-64
2021/12/01 02:46:47;;;;;;;3.02;2.77;;;;;;;4.28;94.07;96808.37;1660470;85;21486;-64
2021/12/01 02:49:20;;;;;;;4.25;3.55;;;;;;;4.28;94.19;96810.51;1656012;85;20939;-64
2021/12/01 02:51:49;;;;;;;3.50;3.20;;;;;;;4.34;94.18;96811.55;1659042;86;21163;-64
2021/12/01 02:54:16;;;;;;;3.52;3.08;;;;;;;4.31;93.96;96817.20;1655797;85;21002;-64
2021/12/01 02:56:48;;;;;;;3.87;3.30;;;;;;;4.33;94.18;96826.53;1658591;85;21062;-64
2021/12/01 02:59:15;;;;;;;4.35;3.67;;;;;;;4.39;94.23;96832.84;1658287;86;20891;-64
2021/12/01 03:01:42;;;;;;;4.20;3.27;;;;;;;4.38;94.11;96841.73;1659511;85;20933;-64
2021/12/01 03:04:10;;;;;;;4.97;3.83;;;;;;;4.38;94.01;96838.59;1658912;86;22480;-64
2021/12/01 03:06:37;;;;;;;4.12;3.42;;;;;;;4.43;93.86;96843.30;1656266;85;20876;-64
2021/12/01 03:09:06;;;;;;;4.10;3.35;;;;;;;4.45;93.79;96849.67;1630770;86;21034;-64
2021/12/01 03:11:35;;;;;;;4.12;3.10;;;;;;;4.47;93.73;96856.86;1658880;85;21000;-63
2021/12/01 03:14:10;;;;;;;3.25;2.95;;;;;;;4.47;94.00;96866.08;1657877;85;21006;-64
2021/12/01 03:16:38;;;;;;;3.98;3.58;;;;;;;4.49;93.88;96865.38;1635850;86;21132;-63
2021/12/01 03:19:04;;;;;;;3.37;3.00;;;;;;;4.50;93.80;96863.06;1649771;86;21029;-63
2021/12/01 03:21:38;;;;;;;3.87;3.37;;;;;;;4.52;93.61;96869.76;1656705;85;21096;-63
2021/12/01 03:24:06;;;;;;;3.62;3.30;;;;;;;4.53;93.48;96881.92;1623828;86;20943;-63
2021/12/01 03:26:33;;;;;;;3.42;3.12;;;;;;;4.55;93.45;96883.03;1626048;87;21045;-63
2021/12/01 03:29:01;;;;;;;4.22;3.47;;;;;;;4.54;93.25;96889.30;1626255;87;21162;-63
2021/12/01 03:31:28;;;;;;;4.55;4.15;;;;;;;4.53;93.26;96888.51;1625890;87;20974;-63
2021/12/01 03:33:55;;;;;;;3.70;3.27;;;;;;;4.57;93.27;96893.68;1622854;88;20931;-63
2021/12/01 03:36:21;;;;;;;3.98;2.95;;;;;;;4.60;93.29;96901.20;1629569;86;21565;-64
2021/12/01 03:38:48;;;;;;;3.85;3.25;;;;;;;4.63;93.33;96898.17;1659086;85;20964;-64
2021/12/01 03:41:15;;;;;;;3.30;3.00;;;;;;;4.67;93.46;96911.25;1659960;85;21182;-64
2021/12/01 03:43:42;;;;;;;3.33;2.85;;;;;;;4.77;93.35;96919.60;1658107;85;20995;-64
2021/12/01 03:46:10;;;;;;;3.75;2.83;;;;;;;4.87;93.24;96921.89;1656604;85;21598;-63
2021/12/01 03:48:37;;;;;;;3.17;2.87;;;;;;;4.86;93.52;96928.16;1658374;86;21205;-63
2021/12/01 03:51:05;;;;;;;2.98;2.77;;;;;;;4.86;93.07;96928.98;1656322;85;20966;-64
2021/12/01 03:53:31;;;;;;;4.45;3.22;;;;;;;4.91;92.96;96934.47;1659824;86;21514;-63
2021/12/01 03:55:59;;;;;;;4.30;3.10;;;;;;;4.97;92.99;96943.42;1659214;85;20991;-63
2021/12/01 03:58:26;;;;;;;3.50;2.87;;;;;;;4.96;92.65;96945.73;1658603;85;21143;-63
2021/12/01 04:00:52;;;;;;;3.65;3.27;;;;;;;4.88;92.49;96949.84;1657504;85;21015;-63
2021/12/01 04:03:19;;;;;;;3.42;3.08;;;;;;;4.83;92.39;96953.57;1659269;86;20965;-63
2021/12/01 04:05:46;;;;;;;3.80;2.92;;;;;;;4.84;92.69;96954.71;1658731;85;21231;-63
2021/12/01 04:08:13;;;;;;;3.98;3.47;;;;;;;4.84;94.13;96961.30;1655503;85;21047;-63
2021/12/01 04:10:41;;;;;;;3.77;3.10;;;;;;;4.90;93.67;96966.30;1653972;85;21084;-63
2021/12/01 04:13:07;;;;;;;4.45;3.40;;;;;;;4.91;92.80;96969.22;1658871;85;20931;-63
2021/12/01 04:15:34;;;;;;;4.12;3.72;;;;;;;4.84;93.22;96969.70;1658702;85;21015;-63
2021/12/01 04:18:01;;;;;;;3.85;3.55;;;;;;;4.87;92.89;96972.77;1657946;85;21973;-63
2021/12/01 04:20:29;;;;;;;4.92;4.33;;;;;;;4.90;92.61;96982.11;1658422;86;21009;-63
2021/12/01 04:22:56;;;;;;;3.92;3.47;;;;;;;4.93;92.74;96990.41;1658110;85;20889;-63
2021/12/01 04:25:23;;;;;;;4.35;3.85;;;;;;;4.94;92.44;96985.96;1659520;85;21569;-64
2021/12/01 04:27:50;;;;;;;4.10;3.70;;;;;;;4.93;92.46;96997.00;1659288;85;21007;-63
2021/12/01 04:30:19;;;;;;;3.85;3.55;;;;;;;4.93;92.37;96998.31;1657039;85;21169;-64
2021/12/01 04:32:46;;;;;;;4.08;3.67;;;;;;;4.94;92.24;97002.59;1654071;84;20914;-64
2021/12/01 04:35:15;;;;;;;3.83;3.52;;;;;;;4.95;92.05;97004.20;1658564;85;20959;-64
2021/12/01 04:37:41;;;;;;;4.00;3.65;;;;;;;4.95;91.81;97008.67;1652328;85;21009;-63
2021/12/01 04:40:09;;;;;;;4.65;4.15;;;;;;;4.95;91.81;97016.05;1619377;87;21628;-63
2021/12/01 04:42:36;;;;;;;5.53;4.60;;;;;;;4.95;91.76;97017.90;1613938;87;21861;-63
2021/12/01 04:45:08;;;;;;;4.75;4.05;;;;;;;4.96;91.66;97022.96;1617161;87;21004;-64
2021/12/01 04:47:37;;;;;;;5.65;4.70;;;;;;;4.96;91.53;97030.05;1581694;90;21656;-65
2021/12/01 04:50:01;;;;;;;6.83;5.50;;;;;;;5.00;91.59;97038.68;1587905;89;21061;-68
2021/12/01 04:52:28;;;;;;;8.25;6.10;;;;;;;4.97;91.30;97053.59;1611756;89;21654;-66
2021/12/01 04:54:55;;;;;;;7.28;5.58;;;;;;;4.98;91.21;97059.14;1619302;87;21098;-66
2021/12/01 04:57:23;;;;;;;6.60;5.20;;;;;;;4.98;91.27;97063.59;1593399;89;20966;-66
2021/12/01 04:59:50;;;;;;;5.50;5.00;;;;;;;4.97;91.18;97064.63;1622082;88;21024;-64
2021/12/01 05:02:16;;;;;;;5.47;4.92;;;;;;;5.00;91.19;97081.37;1631633;87;20937;-63
2021/12/01 05:04:43;;;;;;;5.45;4.72;;;;;;;5.00;91.26;97086.64;1623677;88;21514;-68
2021/12/01 05:07:10;;;;;;;4.90;4.50;;;;;;;5.00;91.07;97094.02;1626922;88;21177;-64
2021/12/01 05:09:36;;;;;;;5.83;4.83;;;;;;;5.00;90.93;97099.28;1621969;87;21074;-63
2021/12/01 05:12:07;;;;;;;6.50;5.25;;;;;;;5.05;90.92;97111.09;1623709;87;20987;-64
2021/12/01 05:14:37;;;;;;;5.42;4.92;;;;;;;5.06;90.69;97118.00;1624012;87;21033;-64
2021/12/01 05:17:06;;;;;;;6.20;5.60;;;;;;;4.99;90.63;97125.34;1625687;87;21080;-63
2021/12/01 05:19:34;;;;;;;7.30;6.17;;;;;;;4.97;90.27;97133.13;1627999;88;21509;-64
2021/12/01 05:22:02;;;;;;;8.45;6.80;;;;;;;4.93;90.03;97136.64;1626959;87;20983;-64
2021/12/01 05:24:29;;;;;;;10.00;7.47;;;;;;;4.94;90.15;97154.59;1623410;87;21566;-64
2021/12/01 05:26:55;;;;;;;11.40;8.85;;;;;;;5.00;89.81;97156.47;1627193;88;20967;-65
2021/12/01 05:29:23;;;;;;;11.97;9.33;;;;;;;4.93;89.64;97170.07;1624361;87;21060;-64
2021/12/01 05:31:52;;;;;;;14.83;10.60;;;;;;;4.89;89.87;97169.66;1617540;88;21599;-65
2021/12/01 05:34:19;;;;;;;13.38;10.32;;;;;;;4.90;89.80;97171.27;1639769;86;21001;-64
2021/12/01 05:36:45;;;;;;;13.80;10.38;;;;;;;4.94;89.92;97176.48;1638588;86;21029;-64
2021/12/01 05:39:12;;;;;;;14.93;11.12;;;;;;;4.98;89.67;97187.44;1638492;86;21058;-65
2021/12/01 05:41:39;;;;;;;18.98;13.28;;;;;;;5.06;89.70;97187.30;1639182;87;21600;-64
2021/12/01 05:44:05;;;;;;;17.70;13.25;;;;;;;5.14;89.22;97191.62;1600208;88;21133;-64
2021/12/01 05:46:34;;;;;;;18.70;13.43;;;;;;;5.13;88.94;97197.42;1612751;88;20944;-65
2021/12/01 05:49:01;;;;;;;23.02;12.45;;;;;;;5.08;87.92;97201.13;1639469;86;20947;-63
2021/12/01 05:51:27;;;;;;;22.27;13.72;;;;;;;5.06;87.61;97201.80;1639200;86;20996;-65
2021/12/01 05:53:54;;;;;;;19.73;12.73;;;;;;;5.07;87.29;97215.30;1615439;87;20994;-67
2021/12/01 05:56:20;;;;;;;21.42;12.70;;;;;;;5.07;87.16;97211.34;1638872;86;21103;-69
2021/12/01 05:58:47;;;;;;;17.20;12.20;;;;;;;5.07;87.36;97215.30;1636507;86;21036;-67
2021/12/01 06:01:14;;;;;;;16.97;10.75;;;;;;;5.08;87.16;97227.48;1639554;87;21037;-67
2021/12/01 06:03:43;;;;;;;12.63;10.55;;;;;;;5.15;87.04;97233.62;1639359;87;21125;-65
2021/12/01 06:06:09;;;;;;;9.43;8.00;;;;;;;5.15;86.87;97245.98;1638002;86;21083;-64
2021/12/01 06:08:37;;;;;;;10.00;8.13;;;;;;;5.17;86.70;97261.91;1641316;86;21166;-61
2021/12/01 06:11:04;;;;;;;8.68;7.42;;;;;;;5.14;86.22;97264.10;1643035;86;20971;-64
2021/12/01 06:13:31;;;;;;;8.80;7.75;;;;;;;5.12;86.46;97272.70;1642013;86;20978;-71
2021/12/01 06:15:59;;;;;;;8.58;6.78;;;;;;;5.04;86.36;97274.97;1642107;86;21547;-72
2021/12/01 06:18:26;;;;;;;9.65;6.87;;;;;;;5.04;86.49;97271.02;1642599;86;21581;-68
2021/12/01 06:20:53;;;;;;;8.75;7.12;;;;;;;5.02;86.29;97278.30;1638673;87;21560;-68
2021/12/01 06:23:20;;;;;;;7.97;7.08;;;;;;;4.95;86.17;97295.87;1639185;87;21032;-68
2021/12/01 06:25:48;;;;;;;8.00;7.28;;;;;;;4.95;86.40;97306.42;1639706;87;20962;-68
2021/12/01 06:28:14;;;;;;;8.25;6.90;;;;;;;4.97;86.45;97305.22;1640092;87;21538;-68
2021/12/01 06:30:41;;;;;;;7.33;6.62;;;;;;;5.06;86.19;97304.58;1627633;87;21020;-68
2021/12/01 06:33:08;;;;;;;7.60;6.90;;;;;;;5.09;86.04;97308.66;1603119;88;21243;-68
2021/12/01 06:35:34;;;;;;;7.25;6.45;;;;;;;5.03;86.00;97318.66;1630933;88;21457;-68
2021/12/01 06:38:01;;;;;;;7.28;6.58;;;;;;;5.05;86.06;97328.00;1631112;87;20971;-68
2021/12/01 06:40:28;;;;;;;7.75;7.05;;;;;;;5.02;85.93;97327.55;1630990;88;20975;-68
2021/12/01 06:42:55;;;;;;;7.87;7.08;;;;;;;5.03;85.95;97337.10;1631235;88;20955;-68
2021/12/01 06:45:24;;;;;;;7.95;7.15;;;;;;;4.99;85.78;97342.73;1629949;88;21958;-68
2021/12/01 06:47:51;;;;;;;9.30;8.50;;;;;;;4.95;85.63;97343.31;1630860;88;20971;-68
2021/12/01 06:50:17;;;;;;;8.30;7.50;;;;;;;4.93;85.51;97357.14;1631144;88;20938;-68
2021/12/01 06:52:45;;;;;;;8.10;7.40;;;;;;;4.89;85.37;97354.58;1631176;88;21473;-68
2021/12/01 06:55:12;;;;;;;8.08;7.25;;;;;;;4.93;85.33;97359.28;1631415;88;21010;-68
2021/12/01 06:57:39;;;;;;;7.97;7.20;;;;;;;4.97;85.13;97372.42;1630784;88;21284;-68
2021/12/01 07:00:08;;;;;;;8.20;7.33;;;;;;;4.98;84.75;97374.53;1631029;88;21032;-68
2021/12/01 07:02:36;;;;;;;8.33;7.50;;;;;;;5.03;84.73;97376.63;1631120;88;20967;-68
2021/12/01 07:05:04;;;;;;;9.68;8.05;;;;;;;5.08;84.36;97371.13;1631135;87;20975;-68
2021/12/01 07:07:31;;;;;;;9.20;8.30;;;;;;;5.13;84.00;97374.51;1625762;86;21480;-68
2021/12/01 07:09:59;;;;;;;8.63;7.75;;;;;;;5.13;83.78;97377.96;1599199;89;21055;-68
2021/12/01 07:12:26;;;;;;;8.88;7.85;;;;;;;5.15;83.53;97382.54;1587527;90;21053;-68
2021/12/01 07:14:52;;;;;;;8.88;8.13;;;;;;;5.17;83.41;97392.88;1630825;88;21547;-68
2021/12/01 07:17:20;;;;;;;9.18;8.38;;;;;;;5.21;83.26;97394.98;1631231;88;21057;-69
2021/12/01 07:19:48;;;;;;;10.48;8.68;;;;;;;5.28;83.06;97410.86;1631155;86;20914;-69
2021/12/01 07:22:15;;;;;;;10.32;8.45;;;;;;;5.34;83.00;97413.58;1599892;89;21238;-68
2021/12/01 07:24:44;;;;;;;9.63;8.73;;;;;;;5.39;82.61;97419.11;1573726;91;20969;-68
2021/12/01 07:27:11;;;;;;;10.72;9.40;;;;;;;5.41;82.38;97419.73;1589030;90;21594;-68
2021/12/01 07:29:38;;;;;;;9.73;8.83;;;;;;;5.49;82.47;97428.84;1625280;87;21105;-69
2021/12/01 07:32:06;;;;;;;10.30;9.25;;;;;;;5.60;81.83;97436.23;1640904;87;20957;-68
2021/12/01 07:34:40;;;;;;;10.40;9.25;;;;;;;5.61;81.37;97443.65;1640370;87;21788;-68
2021/12/01 07:37:01;;;;;;;14.25;10.43;;;;;;;5.59;81.22;97449.63;1658969;85;21011;-68
2021/12/01 07:39:28;;;;;;;10.32;9.33;;;;;;;5.60;80.95;97448.10;1667898;86;20904;-68
2021/12/01 07:41:55;;;;;;;10.93;9.93;;;;;;;5.56;80.60;97452.63;1667274;86;20920;-68
2021/12/01 07:44:22;;;;;;;10.53;9.53;;;;;;;5.51;80.14;97459.80;1668293;86;21481;-68
2021/12/01 07:46:50;;;;;;;10.90;9.90;;;;;;;5.45;79.97;97455.75;1668133;86;21172;-68
2021/12/01 07:49:19;;;;;;;11.25;10.05;;;;;;;5.41;80.05;97469.01;1668317;86;20912;-68
2021/12/01 07:51:45;;;;;;;12.03;10.90;;;;;;;5.40;79.47;97468.19;1668315;86;21454;-68
2021/12/01 07:54:12;;;;;;;10.72;9.73;;;;;;;5.36;79.03;97484.08;1668179;86;21124;-67
2021/12/01 07:56:39;;;;;;;11.12;10.03;;;;;;;5.38;78.72;97483.88;1668092;86;21051;-67
2021/12/01 07:59:06;;;;;;;11.55;10.35;;;;;;;5.43;78.27;97492.05;1668236;86;21168;-67
2021/12/01 08:01:32;;;;;;;12.33;11.12;;;;;;;5.36;77.83;97506.98;1668190;84;20999;-67
2021/12/01 08:04:00;;;;;;;12.00;10.85;;;;;;;5.33;77.72;97517.41;1667368;86;21031;-67
2021/12/01 08:06:30;;;;;;;11.73;10.53;;;;;;;5.26;77.66;97532.83;1668172;84;20960;-67
2021/12/01 08:08:57;;;;;;;10.98;9.78;;;;;;;5.30;77.36;97538.86;1668207;86;20960;-68
2021/12/01 08:11:23;;;;;;;12.35;11.15;;;;;;;5.28;77.45;97546.63;1668212;86;21814;-68
2021/12/01 08:13:50;;;;;;;18.00;13.93;;;;;;;5.31;77.20;97542.31;1667496;85;21000;-68
2021/12/01 08:16:17;;;;;;;15.78;13.10;;;;;;;5.37;76.91;97552.14;1668141;86;20924;-68
2021/12/01 08:18:44;;;;;;;17.52;13.38;;;;;;;5.39;76.58;97554.09;1667432;86;20992;-68
2021/12/01 08:21:10;;;;;;;19.45;14.15;;;;;;;5.41;76.17;97562.13;1668059;86;21577;-68
2021/12/01 08:23:38;;;;;;;19.70;14.38;;;;;;;5.40;75.87;97567.56;1668163;85;21166;-68
2021/12/01 08:26:05;;;;;;;17.23;14.40;;;;;;;5.38;76.08;97565.62;1667873;86;20901;-68
2021/12/01 08:28:32;;;;;;;18.25;14.90;;;;;;;5.44;75.75;97568.85;1668180;86;21515;-68
2021/12/01 08:30:59;;;;;;;18.02;14.63;;;;;;;5.52;75.50;97568.27;1672644;85;21328;-68
2021/12/01 08:33:26;;;;;;;16.82;14.35;;;;;;;5.63;75.03;97563.51;1674677;85;20892;-68
2021/12/01 08:35:53;;;;;;;18.77;14.25;;;;;;;5.65;74.99;97564.95;1674380;85;21171;-68
2021/12/01 08:38:19;;;;;;;21.70;15.98;;;;;;;5.66;75.82;97571.05;1674431;85;20983;-68
2021/12/01 08:40:46;;;;;;;22.13;14.15;;;;;;;5.56;76.32;97572.15;1673871;85;21693;-68
2021/12/01 08:43:13;;;;;;;16.23;13.28;;;;;;;5.55;76.86;97567.07;1674450;84;21035;-68
2021/12/01 08:45:40;;;;;;;17.05;12.93;;;;;;;5.52;77.48;97569.58;1674467;85;21037;-68
2021/12/01 08:48:06;;;;;;;21.93;15.32;;;;;;;5.56;77.61;97569.51;1664877;85;21061;-68
2021/12/01 08:50:33;;;;;;;22.65;15.32;;;;;;;5.52;77.03;97570.90;1665102;85;21497;-67
2021/12/01 08:53:02;;;;;;;25.57;16.90;;;;;;;5.44;76.66;97571.00;1659175;85;21012;-67
2021/12/01 08:55:28;;;;;;;22.95;16.85;;;;;;;5.44;76.17;97571.00;1658118;85;20884;-67
2021/12/01 08:57:55;;;;;;;25.02;16.85;;;;;;;5.42;76.04;97584.84;1664513;85;20888;-67
2021/12/01 09:00:21;;;;;;;23.90;16.35;;;;;;;5.44;75.69;97587.31;1660636;85;21792;-67
2021/12/01 09:02:49;;;;;;;19.67;15.45;;;;;;;5.43;75.04;97590.94;1654479;84;20996;-67
2021/12/01 09:05:15;;;;;;;19.15;14.98;;;;;;;5.41;74.89;97596.41;1660924;84;20905;-67
2021/12/01 09:07:44;;;;;;;14.70;11.22;;;;;;;5.40;74.60;97593.94;1660249;86;20921;-67
2021/12/01 09:10:11;;;;;;;11.75;10.60;;;;;;;5.45;74.51;97602.12;1660516;86;21027;-68
2021/12/01 09:12:41;;;;;;;11.10;10.10;;;;;;;5.47;74.01;97606.23;1664256;85;22336;-70
2021/12/01 09:15:09;;;;;;;11.60;10.40;;;;;;;5.50;73.71;97615.08;1663163;85;21107;-70
2021/12/01 09:17:37;;;;;;;11.70;10.55;;;;;;;5.52;72.95;97614.42;1665530;84;21369;-70
2021/12/01 09:20:05;;;;;;;10.72;9.80;;;;;;;5.52;72.79;97622.33;1625655;86;21033;-71
2021/12/01 09:22:31;;;;;;;10.58;9.58;;;;;;;5.50;72.50;97616.92;1666236;85;21447;-73
2021/12/01 09:24:58;;;;;;;10.05;9.08;;;;;;;5.43;72.07;97618.14;1628707;87;21171;-72
2021/12/01 09:27:24;;;;;;;10.13;9.15;;;;;;;5.44;71.99;97615.83;1625757;87;21085;-73
2021/12/01 09:29:53;;;;;;;10.43;9.43;;;;;;;5.45;71.53;97612.66;1664645;85;21509;-69
2021/12/01 09:32:19;;;;;;;10.38;9.03;;;;;;;5.50;71.28;97614.28;1664906;85;21019;-71
2021/12/01 09:34:46;;;;;;;10.63;9.63;;;;;;;5.54;70.98;97615.54;1666115;85;20921;-69
2021/12/01 09:37:13;;;;;;;10.98;9.88;;;;;;;5.59;70.99;97611.36;1664568;85;21235;-67
2021/12/01 09:39:39;;;;;;;11.93;10.72;;;;;;;5.72;71.70;97612.51;1618317;87;21065;-67
2021/12/01 09:42:08;;;;;;;11.10;9.98;;;;;;;5.90;70.82;97603.22;1651234;86;20925;-68
2021/12/01 09:44:36;;;;;;;12.73;10.35;;;;;;;6.01;70.20;97601.92;1655504;85;21441;-69
2021/12/01 09:47:04;;;;;;;13.20;11.80;;;;;;;6.08;69.36;97598.84;1663140;85;21076;-71
2021/12/01 09:49:30;;;;;;;15.85;11.80;;;;;;;6.11;68.42;97603.25;1669972;85;21789;-69
2021/12/01 09:51:57;;;;;;;17.92;11.53;;;;;;;6.14;68.00;97611.30;1662940;85;21096;-69
2021/12/01 09:54:24;;;;;;;16.12;12.40;;;;;;;6.15;67.25;97622.19;1665388;85;21033;-70
2021/12/01 09:56:50;;;;;;;18.48;14.03;;;;;;;6.11;67.17;97633.62;1659199;85;21078;-69
2021/12/01 09:59:17;;;;;;;15.95;12.28;;;;;;;6.14;66.62;97633.75;1667063;85;21033;-69
2021/12/01 10:01:44;;;;;;;13.83;11.40;;;;;;;6.08;66.51;97645.04;1660656;85;21491;-69
2021/12/01 10:04:10;;;;;;;10.90;9.73;;;;;;;6.10;66.46;97639.89;1665711;85;21027;-70
2021/12/01 10:06:38;;;;;;;10.90;9.80;;;;;;;6.17;65.88;97649.22;1627885;86;21008;-70
2021/12/01 10:09:07;;;;;;;9.98;8.75;;;;;;;6.12;65.92;97644.51;1615322;88;20975;-70
2021/12/01 10:11:37;;;;;;;9.48;8.38;;;;;;;6.06;65.69;97644.41;1657860;85;21145;-70
2021/12/01 10:14:06;;;;;;;12.47;11.18;;;;;;;5.94;65.50;97644.59;1646653;85;21189;-68
2021/12/01 10:16:35;;;;;;;11.50;10.38;;;;;;;5.91;65.94;97645.78;1649449;86;21010;-70
2021/12/01 10:19:09;;;;;;;9.45;8.45;;;;;;;5.92;65.83;97647.40;1653268;85;20943;-68
2021/12/01 10:21:42;;;;;;;9.30;8.40;;;;;;;5.93;66.06;97658.78;1614890;87;20983;-68
2021/12/01 10:24:11;;;;;;;10.32;9.30;;;;;;;5.94;66.33;97667.02;1599628;88;21084;-68
2021/12/01 10:26:48;;;;;;;10.63;9.53;;;;;;;5.98;66.41;97673.06;1599032;88;21222;-68
2021/12/01 10:29:23;;;;;;;11.75;10.00;;;;;;;6.05;66.86;97679.72;1646566;86;21125;-69
2021/12/01 10:32:07;;;;;;;22.77;11.85;;;;;;;6.15;66.94;97692.16;1651875;86;21040;-67
2021/12/01 10:34:36;;;;;;;12.00;10.78;;;;;;;6.23;66.41;97698.13;1656533;85;21536;-68
2021/12/01 10:37:31;;;;;;;12.80;10.95;;;;;;;6.21;66.33;97706.74;1660119;85;21007;-69
2021/12/01 10:40:15;;;;;;;13.13;11.53;;;;;;;6.16;66.33;97702.52;1657789;85;21188;-69
2021/12/01 10:43:05;;;;;;;13.18;11.90;;;;;;;6.17;66.35;97706.81;1659126;85;20971;-68
2021/12/01 10:45:40;;;;;;;17.45;12.40;;;;;;;6.17;65.83;97707.31;1659126;84;21014;-69
2021/12/01 10:48:09;;;;;;;14.80;11.63;;;;;;;6.24;66.07;97717.44;1639199;86;21449;-70
2021/12/01 10:50:41;;;;;;;15.58;10.90;;;;;;;6.45;66.13;97721.44;1659383;85;20935;-71
2021/12/01 10:53:15;;;;;;;13.18;11.03;;;;;;;6.72;65.89;97722.55;1631394;86;20915;-71
2021/12/01 10:55:51;;;;;;;12.40;11.10;;;;;;;7.04;65.27;97727.83;1658745;85;21018;-72
2021/12/01 10:58:20;;;;;;;11.80;10.45;;;;;;;7.34;64.78;97742.02;1659642;85;20911;-67
2021/12/01 11:00:53;;;;;;;12.23;10.95;;;;;;;7.62;64.16;97751.28;1658870;85;20978;-67
2021/12/01 11:03:26;;;;;;;9.85;8.85;;;;;;;7.92;63.00;97750.56;1659905;85;20994;-67
2021/12/01 11:06:08;;;;;;;10.72;9.65;;;;;;;8.13;60.46;97745.18;1656938;86;21165;-68
2021/12/01 11:08:38;;;;;;;11.30;10.13;;;;;;;8.33;59.87;97744.78;1658436;85;20899;-71
2021/12/01 11:11:13;;;;;;;11.40;9.75;;;;;;;8.55;59.23;97752.91;1626970;87;21595;-68
2021/12/01 11:13:45;;;;;;;10.78;9.68;;;;;;;8.76;58.42;97755.13;1661299;85;21060;-69
2021/12/01 11:16:13;;;;;;;11.08;9.58;;;;;;;8.96;57.08;97754.16;1658179;86;21015;-69
2021/12/01 11:18:43;;;;;;;10.08;8.98;;;;;;;9.03;56.18;97744.87;1658833;85;21192;-67
2021/12/01 11:21:17;;;;;;;9.80;8.80;;;;;;;9.11;54.50;97753.95;1659756;85;21050;-69
2021/12/01 11:23:47;;;;;;;9.25;8.25;;;;;;;9.17;54.75;97753.98;1658460;85;21000;-69
2021/12/01 11:26:17;;;;;;;9.18;8.28;;;;;;;9.26;53.94;97747.95;1658223;85;20972;-68
2021/12/01 11:28:58;;;;;;;9.33;8.45;;;;;;;9.30;53.21;97730.61;1659195;85;20976;-66
2021/12/01 11:31:45;;;;;;;8.13;7.33;;;;;;;9.33;52.18;97736.84;1649526;86;21172;-69
2021/12/01 11:34:16;;;;;;;8.55;7.65;;;;;;;9.35;50.23;97746.73;1610414;88;21018;-68
2021/12/01 11:36:51;;;;;;;7.37;6.67;;;;;;;9.32;49.98;97749.80;1605710;88;21036;-67
2021/12/01 11:39:22;;;;;;;7.53;6.83;;;;;;;9.31;49.08;97756.11;1601654;88;20911;-68
2021/12/01 11:41:52;;;;;;;7.75;6.95;;;;;;;9.22;49.31;97758.67;1637011;86;21023;-72
2021/12/01 11:44:19;;;;;;;7.22;6.53;;;;;;;9.22;49.14;97761.33;1623628;86;21147;-69
2021/12/01 11:46:48;;;;;;;6.67;6.03;;;;;;;9.20;47.35;97756.20;1649418;86;21009;-69
2021/12/01 11:49:16;;;;;;;6.42;5.83;;;;;;;9.06;48.35;97777.63;1639895;86;20923;-70